Weather observations for the past three days for
Fort Hood, Hood AAF Ft Hood
| Date | Time (cdt) | Wind (mph) | Vis. (mi.) | Weather | Sky Cond. | Temperature (ºF) | Relative Humidity | Wind Chill (°F) | Heat Index (°F) | Pressure | Precipitation (in) | ||||||
|---|---|---|---|---|---|---|---|---|---|---|---|---|---|---|---|---|---|
| Air | Dwpt | 6 hour | altimeter (in) | sea level (mb) | 1 hr | 3 hr | 6 hr | ||||||||||
| Max. | Min. | ||||||||||||||||
| 08 | 06:55 | Calm | 9.00 | Partly Cloudy | SCT025 | 59.2 | 57.2 | 60.6 | 57.4 | 93% | 29.93 | 1013.1 | |||||
| 08 | 05:55 | SE 3 | 10.00 | Thunderstorm in Vicinity | BKN021 OVC030 | 60.4 | 55.9 | 85% | 29.95 | 1013.7 | |||||||
| 08 | 04:55 | NE 3 | 10.00 | Overcast | OVC022 | 59.9 | 57 | 90% | 29.96 | 1014.0 | |||||||
| 08 | 03:55 | N 3 | 10.00 | Overcast | OVC025 | 60.3 | 56.7 | 88% | 29.96 | 1014.1 | |||||||
| 08 | 02:55 | NE 6 | 10.00 | Overcast | OVC021 | 59.9 | 56.3 | 88% | 29.94 | 1013.3 | |||||||
| 08 | 01:55 | Calm | 10.00 | Partly Cloudy | SCT260 | 59 | 56.1 | 90% | 29.96 | 1014.1 | |||||||
| 08 | 00:55 | Calm | 10.00 | Fair | CLR | 58.3 | 55.6 | 65.5 | 58.3 | 91% | 29.97 | 1014.5 | |||||
| 07 | 23:55 | NW 3 | 10.00 | Partly Cloudy | SCT240 | 60.1 | 56.5 | 88% | 29.99 | 1015.1 | |||||||
| 07 | 22:55 | Calm | 10.00 | Fair | CLR | 59.9 | 56.7 | 89% | 29.99 | 1015.2 | |||||||
| 07 | 21:55 | N 3 | 10.00 | Fair | CLR | 61.7 | 55.8 | 81% | 29.97 | 1014.4 | |||||||
| 07 | 20:55 | NE 6 | 10.00 | A Few Clouds | FEW230 | 63 | 54.5 | 74% | 29.94 | 1013.5 | |||||||
| 07 | 19:55 | E 5 | 9.00 | Partly Cloudy | FEW110 SCT230 | 64.4 | 53.6 | 68% | 29.95 | 1013.8 | |||||||
| 07 | 18:55 | Calm | 7.00 | Fair | CLR | 65.7 | 53.1 | 67.1 | 63.1 | 64% | 29.98 | 1014.8 | |||||
| 07 | 17:55 | NE 7 | 8.00 | Mostly Cloudy | SCT110 BKN190 | 66.6 | 53.1 | 62% | 29.98 | 1014.8 | |||||||
| 07 | 16:55 | NE 7 | 9.00 | Partly Cloudy | FEW110 SCT150 SCT170 SCT200 | 67.1 | 53.2 | 61% | 30 | 1015.4 | |||||||
| 07 | 15:55 | N 7 | 8.00 | Mostly Cloudy | BKN110 BKN130 | 65.1 | 51.8 | 62% | 30.03 | 1016.5 | |||||||
| 07 | 14:55 | N 8 | 10.00 | Partly Cloudy | FEW095 SCT120 SCT250 SCT280 SCT330 | 66.2 | 52 | 60% | 30.04 | 1016.8 | |||||||
| 07 | 13:55 | NE 7 | 10.00 | Fair | CLR | 63.5 | 51.1 | 64% | 30.04 | 1016.9 | |||||||
| 07 | 12:55 | NE 8 | 9.00 | A Few Clouds | FEW180 | 63.9 | 51.1 | 63.9 | 56.1 | 63% | 30.05 | 1017.1 | |||||
| 07 | 11:55 | NE 6 | 10.00 | Fair | CLR | 63 | 50.5 | 64% | 30.09 | 1018.6 | |||||||
| 07 | 10:55 | E 9 | 10.00 | Fair | CLR | 62.1 | 50.2 | 65% | 30.08 | 1018.2 | |||||||
| 07 | 09:55 | NE 13 | 10.00 | A Few Clouds | FEW160 | 60.4 | 50.5 | 70% | 30.08 | 1018.2 | |||||||
| 07 | 08:55 | NE 17 | 10.00 | Mostly Cloudy | BKN011 BKN160 | 57.6 | 52.3 | 83% | 30.07 | 1018.0 | |||||||
| 07 | 07:55 | N 16 | 10.00 | Overcast | OVC009 | 57 | 53.2 | 87% | 30.08 | 1018.3 | |||||||
| 07 | 06:55 | N 12 | 7.00 | Overcast | OVC005 | 56.1 | 54.1 | 59.2 | 55.9 | 93% | 30.07 | 1018.0 | |||||
| 07 | 05:55 | N 13 | 10.00 | Overcast | OVC007 | 56.3 | 53.8 | 91% | 30.04 | 1016.9 | |||||||
| 07 | 04:55 | N 12 | 10.00 | Overcast | OVC009 | 57.2 | 53.6 | 88% | 30.04 | 1016.9 | |||||||
| 07 | 03:55 | N 13 | 10.00 | Overcast | OVC009 | 57.7 | 54.1 | 88% | 30.02 | 1016.3 | |||||||
| 07 | 02:55 | NE 10 | 10.00 | Overcast | OVC011 | 58.1 | 54.3 | 87% | 29.99 | 1015.2 | |||||||
| 07 | 01:55 | NE 12 | 10.00 | Overcast | BKN010 OVC015 | 58.5 | 54.7 | 87% | 29.97 | 1014.5 | |||||||
| 07 | 00:55 | NE 7 | 10.00 | Partly Cloudy | SCT200 | 59 | 54.5 | 62.1 | 59 | 85% | 29.99 | 1015.2 | |||||
| 06 | 23:55 | NE 9 | 10.00 | Partly Cloudy | SCT190 | 60.1 | 54.1 | 81% | 29.98 | 1014.8 | |||||||
| 06 | 22:55 | NE 12 | 10.00 | Partly Cloudy | FEW027 SCT200 | 61 | 55 | 81% | 29.98 | 1014.9 | |||||||
| 06 | 21:55 | N 9 | 10.00 | Overcast | OVC025 | 61.7 | 55 | 79% | 29.98 | 1014.8 | |||||||
| 06 | 20:55 | N 8 | 10.00 | Overcast | OVC025 | 61.5 | 55.6 | 81% | 29.94 | 1013.5 | |||||||
| 06 | 19:55 | N 8 | 9.00 | Overcast | OVC023 | 61.7 | 55.8 | 81% | 29.92 | 1012.7 | |||||||
| 06 | 18:55 | N 9 | 9.00 | Overcast | OVC022 | 61.7 | 55.8 | 61.7 | 58.5 | 81% | 29.89 | 1011.6 | |||||
| 06 | 17:55 | N 9 | 10.00 | Overcast | SCT014 OVC020 | 60.4 | 54.5 | 81% | 29.9 | 1011.8 | |||||||
| 06 | 16:55 | N 8 | 10.00 | Overcast | OVC012 | 59.7 | 54.1 | 82% | 29.9 | 1011.9 | |||||||
| 06 | 15:55 | N 13 | 9.00 | Overcast | OVC010 | 59.5 | 54.3 | 83% | 29.91 | 1012.2 | |||||||
| 06 | 14:55 | N 14 | 10.00 | Overcast | OVC010 | 59.4 | 54.1 | 83% | 29.92 | 1012.5 | |||||||
| 06 | 13:55 | N 14 | 10.00 | Overcast | OVC010 | 58.8 | 53.6 | 83% | 29.92 | 1012.5 | |||||||
| 06 | 12:55 | N 15 | 10.00 | Overcast | OVC011 | 60.3 | 55.4 | 65.3 | 57 | 84% | 29.91 | 1012.2 | |||||
| 06 | 11:55 | E 7 | 10.00 | Partly Cloudy | SCT008 | 62.6 | 59 | 88% | 29.88 | 1011.1 | |||||||
| 06 | 10:55 | NE 12 | 7.00 | Thunderstorm Light Rain in Vicinity | BKN009 BKN013 OVC030 | 57.4 | 55 | 92% | 29.91 | 1012.2 | |||||||
| 06 | 09:55 | N 17 G 28 | 1.13 | Thunderstorm Light Rain | OVC004 | 58.3 | 56.8 | 95% | 29.92 | 1012.5 | |||||||
| 06 | 08:55 | N 14 | 8.00 | Overcast | OVC006 | 61.2 | 59.4 | 94% | 29.87 | 1010.8 | |||||||
| 06 | 07:55 | N 15 | 10.00 | Overcast | OVC009 | 63.5 | 61.2 | 92% | 29.83 | 1009.3 | |||||||
| 06 | 06:55 | N 12 | 7.00 | Light Rain | OVC006 | 64.9 | 63.5 | 76.6 | 64.8 | 95% | 29.8 | 1008.2 | 0.01 | 0.02 | |||
| 06 | 05:55 | Calm | 4.00 | Light Rain Fog/Mist | SCT003 BKN014 OVC019 | 73.9 | 73 | 97% | 29.79 | 1007.7 | 0.01 | ||||||
| 06 | 04:55 | SW 3 | 5.00 | Fog/Mist | BKN005 BKN010 OVC015 | 74.7 | 72.5 | 93% | 29.77 | 1006.9 | |||||||
| 06 | 03:55 | S 8 | 9.00 | Overcast | OVC011 | 75.9 | 71.8 | 87% | 76 | 29.76 | 1006.6 | ||||||
| 06 | 02:55 | S 8 | 10.00 | Overcast | OVC012 | 76.3 | 72.1 | 87% | 77 | 29.76 | 1006.6 | ||||||
| 06 | 01:55 | S 6 | 10.00 | Overcast | OVC011 | 76.5 | 72.3 | 87% | 77 | 29.77 | 1007.0 | ||||||
| 06 | 00:55 | S 6 | 10.00 | Overcast | OVC010 | 76.1 | 72.1 | 84.9 | 75.4 | 88% | 76 | 29.76 | 1006.7 | ||||
| 05 | 23:55 | S 10 | 10.00 | A Few Clouds | FEW200 | 76.1 | 72.1 | 88% | 76 | 29.74 | 1006.0 | ||||||
| 05 | 22:55 | S 12 | 10.00 | A Few Clouds | FEW190 | 77 | 71.8 | 84% | 78 | 29.74 | 0.0 | ||||||
| 05 | 21:55 | S 7 | 6.00 | Fair with Haze | CLR | 76.6 | 71.1 | 83% | 78 | 29.71 | 0.0 | ||||||
| 05 | 20:55 | S 7 | 6.00 | Fair with Haze | CLR | 79.3 | 71.1 | 76% | 82 | 29.7 | 0.0 | ||||||
| 05 | 19:55 | S 10 | 5.00 | Fair with Haze | CLR | 81.3 | 71.4 | 72% | 86 | 29.68 | 0.0 | ||||||
| 05 | 18:55 | S 9 | 7.00 | Fair | CLR | 84.7 | 71.6 | 89.1 | 82.4 | 65% | 90 | 29.68 | 0.0 | ||||
| 05 | 17:55 | S 12 | 7.00 | A Few Clouds | FEW038 | 85.6 | 71.1 | 62% | 91 | 29.66 | 0.0 | ||||||
| 05 | 16:55 | SW 12 | 7.00 | Fair | CLR | 87.8 | 70.2 | 56% | 93 | 29.66 | 0.0 | ||||||
| 05 | 15:55 | S 12 | 8.00 | Fair | CLR | 88.3 | 70.5 | 56% | 94 | 29.68 | 0.0 | ||||||
| 05 | 14:55 | S 14 G 18 | 8.00 | A Few Clouds | FEW320 | 86.5 | 70.5 | 59% | 92 | 29.7 | 0.0 | ||||||
| 05 | 13:55 | S 13 G 21 | 8.00 | A Few Clouds | FEW310 FEW330 | 84.6 | 69.6 | 61% | 89 | 29.72 | 0.0 | ||||||
| 05 | 12:55 | S 16 | 9.00 | A Few Clouds | FEW024 FEW310 FEW350 | 83.1 | 69.1 | 83.1 | 79.5 | 63% | 87 | 29.74 | 0.0 | ||||
| 05 | 10:55 | SW 13 | 8.00 | Overcast | OVC020 | 78.1 | 67.8 | 71% | 80 | 29.76 | 1006.8 | ||||||
| 05 | 09:55 | SW 12 G 20 | 8.00 | Overcast | OVC016 | 74.8 | 67.8 | 79% | 29.75 | 1006.5 | |||||||
| 05 | 08:55 | S 16 | 6.00 | Overcast with Haze | OVC014 | 73.4 | 67.5 | 82% | 29.74 | 1006.2 | |||||||
| 05 | 07:55 | S 12 | 6.00 | Overcast with Haze | OVC017 | 72.3 | 67.1 | 84% | 29.73 | 1005.8 | |||||||
| Date | Time (cdt) | Wind (mph) | Vis. (mi.) | Weather | Sky Cond. | Air | Dwpt | Max. | Min. | Relative Humidity | Wind Chill (°F) | Heat Index (°F) | altimeter (in) | sea level (mb) | 1 hr | 3 hr | 6 hr |
| 6 hour | |||||||||||||||||
| Temperature (ºF) | Pressure | Precipitation (in) | |||||||||||||||